Jack Mc Namara Field Airport
KCEC : now visible

Airfield :











YOU CAN JOIN US ON...

 
LOGIN :

Register | Disclaimer

   EN    FR    IT 

 









Legend :    VFR   Marginal VFR   IFR   Intensive IFR   Very Intensive IFR
Visi :
Ceiling :
>= 8 km
>= 3000ft
5 to 8 km
1000 to 3000 ft
1500m to 5 km
500 to 1000 ft
800 to 1500m
200 to 500 ft
< 800m
< 200 ft
Symbols :   Thunderstorms  Fog  Heavy snow  Heavy precipitations  Wind > 20 kt






- Airport Elevation : 61 ft
- IATA code : CEC


KCEC - Jack Mc Namara Field

CURRENT METAR :
  • 090056Z AUTO 01013G24KT 4SM HZ CLR 16/11 A2997 RMK AO2 SLP148 T01610106

EXPIRED METARs :
  • 082356Z AUTO 03011G21KT 4SM HZ CLR 18/11 A2997 RMK AO2 SLP149 T01780111 10189 20167 56012
  • 082256Z AUTO 01012G21KT 4SM HZ CLR 18/12 A2998 RMK AO2 SLP153 T01780117

TAF KCEC
Valid from the 09 at 00:00 until the 10 at 00:00 UTC


082340Z 0900/0924 35016G25KT 4SM HZ SKC
FM090400 36015KT 5SM BR SKC
FM091000 36006KT 5SM BR FEW005 WS015/03025KT
FM091700 33013KT 5SM BR SKC
KZSE FIR / North America



MET'MAP, your aeronautical weather chart ! - Copyright ORBIFLY December 2007 - Disclaimer

ORBIFLY MET'MAP TEAM :

Programming & Development : Alexandra Zaïnal
Concept & original design : Baudouin d'Aumeries
Assistance for programming : Marc-Olivier Méhu
Technical & hardware support : Manuel Goepfert

Contact : metmap@orbifly.com




SOURCES & CREDITS :

   NOAA       Earth
Advisory